Time;durP1;ratioP1;P1;durP2;ratioP2;P2;SDS_P1;SDS_P2;PMS_P1;PMS_P2;Temp;Humidity;BMP_temperature;BMP_pressure;BME280_temperature;BME280_humidity;BME280_pressure;Samples;Min_cycle;Max_cycle;Signal;HPM_P1;HPM_P2
2021/04/12 00:00:08;;;;;;;0.10;0.10;;;1.40;77.70;;;;;;4903276;29;20422;-74
2021/04/12 00:02:46;;;;;;;0.13;0.10;;;1.40;77.70;;;;;;4923509;29;20036;-74
2021/04/12 00:05:23;;;;;;;0.47;0.10;;;1.30;77.60;;;;;;4891745;29;20056;-73
2021/04/12 00:08:03;;;;;;;0.10;0.10;;;1.30;77.70;;;;;;4923369;29;20099;-74
2021/04/12 00:10:52;;;;;;;0.00;0.00;;;1.30;77.80;;;;;;4904414;29;20036;-74
2021/04/12 00:13:41;;;;;;;0.10;0.10;;;1.40;77.90;;;;;;4923152;29;20032;-73
2021/04/12 00:16:17;;;;;;;0.00;0.00;;;1.30;77.80;;;;;;4923267;29;20039;-74
2021/04/12 00:18:51;;;;;;;0.17;0.10;;;1.30;77.80;;;;;;4889546;29;20398;-74
2021/04/12 00:21:23;;;;;;;0.00;0.00;;;1.20;77.80;;;;;;4904266;29;20119;-74
2021/04/12 00:24:04;;;;;;;0.00;0.00;;;1.30;77.90;;;;;;4902921;29;20088;-72
2021/04/12 00:26:37;;;;;;;0.00;0.00;;;1.20;77.90;;;;;;4901757;29;20644;-74
2021/04/12 00:29:10;;;;;;;0.00;0.00;;;1.30;78.10;;;;;;4901151;29;20239;-73
2021/04/12 00:31:59;;;;;;;0.20;0.20;;;1.20;78.00;;;;;;4900560;29;20044;-72
2021/04/12 00:34:41;;;;;;;0.10;0.10;;;1.10;78.10;;;;;;4900452;29;20040;-73
2021/04/12 00:37:14;;;;;;;0.10;0.10;;;1.20;78.10;;;;;;4885882;29;20486;-73
2021/04/12 00:39:48;;;;;;;0.05;0.05;;;1.10;78.10;;;;;;4900593;29;20513;-72
2021/04/12 00:42:35;;;;;;;0.00;0.00;;;1.10;78.20;;;;;;4899635;29;20052;-73
2021/04/12 00:45:23;;;;;;;0.00;0.00;;;1.10;78.20;;;;;;4899858;29;20052;-72
2021/04/12 00:48:12;;;;;;;0.10;0.10;;;1.10;78.30;;;;;;4916973;29;20116;-72
2021/04/12 00:50:58;;;;;;;0.10;0.10;;;1.10;78.30;;;;;;4882636;29;20491;-72
2021/04/12 00:53:46;;;;;;;0.10;0.10;;;1.00;78.20;;;;;;4899845;29;20076;-73
2021/04/12 00:56:20;;;;;;;0.10;0.10;;;1.00;78.30;;;;;;4916425;29;20039;-73
2021/04/12 00:59:09;;;;;;;0.10;0.10;;;1.00;78.40;;;;;;4899327;29;20032;-73
2021/04/12 01:01:47;;;;;;;0.10;0.10;;;1.00;78.50;;;;;;4901289;29;20036;-72
2021/04/12 01:04:33;;;;;;;0.10;0.10;;;0.90;78.60;;;;;;4898389;29;20482;-72
2021/04/12 01:07:26;;;;;;;0.08;0.08;;;0.90;78.70;;;;;;4898466;29;20099;-72
2021/04/12 01:10:20;;;;;;;0.10;0.10;;;0.90;78.80;;;;;;4899267;29;20493;-72
2021/04/12 01:13:17;;;;;;;0.30;0.13;;;0.80;78.70;;;;;;4898536;29;20122;-72
2021/04/12 01:16:17;;;;;;;0.22;0.00;;;0.80;78.70;;;;;;4916257;29;20040;-72
2021/04/12 01:19:17;;;;;;;0.10;0.10;;;0.80;78.70;;;;;;4884366;29;20044;-72
2021/04/12 01:22:17;;;;;;;0.30;0.10;;;0.80;78.70;;;;;;4915629;29;20047;-72
2021/04/12 01:25:07;;;;;;;0.10;0.10;;;0.80;78.70;;;;;;4916057;29;20037;-72
2021/04/12 01:28:08;;;;;;;0.03;0.03;;;0.70;78.70;;;;;;4915778;29;20406;-73
2021/04/12 01:31:00;;;;;;;0.20;0.20;;;0.70;78.80;;;;;;4915703;29;20394;-72
2021/04/12 01:34:00;;;;;;;0.00;0.00;;;0.70;78.90;;;;;;4915957;29;20438;-73
2021/04/12 01:36:42;;;;;;;0.30;0.10;;;0.70;78.90;;;;;;4915688;29;20044;-73
2021/04/12 01:39:20;;;;;;;0.08;0.08;;;0.80;79.00;;;;;;4883816;29;20052;-72
2021/04/12 01:42:06;;;;;;;0.13;0.13;;;0.70;79.00;;;;;;4897881;29;20049;-73
2021/04/12 01:44:41;;;;;;;0.00;0.00;;;0.70;79.00;;;;;;4898715;29;20051;-73
2021/04/12 01:47:27;;;;;;;0.22;0.20;;;0.70;79.00;;;;;;4897980;29;20041;-72
2021/04/12 01:50:15;;;;;;;0.15;0.15;;;0.70;79.00;;;;;;4884406;29;20063;-72
2021/04/12 01:53:11;;;;;;;0.10;0.05;;;0.60;79.00;;;;;;4885713;29;20116;-73
2021/04/12 01:56:08;;;;;;;0.10;0.10;;;0.60;79.10;;;;;;4899296;29;20033;-73
2021/04/12 01:58:55;;;;;;;0.17;0.10;;;0.60;79.10;;;;;;4916802;29;20501;-73
2021/04/12 02:01:47;;;;;;;0.00;0.00;;;0.60;79.20;;;;;;4916998;29;20039;-73
2021/04/12 02:04:32;;;;;;;0.00;0.00;;;0.60;79.30;;;;;;4916748;29;20446;-74
2021/04/12 02:07:18;;;;;;;0.32;0.13;;;0.50;79.90;;;;;;4916462;29;20032;-74
2021/04/12 02:10:18;;;;;;;0.10;0.10;;;0.60;79.20;;;;;;4917117;29;20049;-74
2021/04/12 02:13:13;;;;;;;0.38;0.30;;;0.60;79.20;;;;;;4904187;29;20087;-74
2021/04/12 02:16:13;;;;;;;0.32;0.20;;;0.60;79.30;;;;;;4902264;29;20542;-73
2021/04/12 02:18:58;;;;;;;0.57;0.10;;;0.50;79.20;;;;;;4902208;29;20024;-73
2021/04/12 02:21:40;;;;;;;0.10;0.10;;;0.50;79.20;;;;;;4916494;29;20038;-73
2021/04/12 02:24:23;;;;;;;0.22;0.20;;;0.60;79.30;;;;;;4883999;29;20025;-73
2021/04/12 02:27:12;;;;;;;0.10;0.10;;;0.50;79.20;;;;;;4899738;29;20134;-74
2021/04/12 02:29:59;;;;;;;0.10;0.10;;;0.50;79.30;;;;;;4899640;29;20088;-73
2021/04/12 02:32:55;;;;;;;0.10;0.10;;;0.50;79.30;;;;;;4898459;29;20033;-71
2021/04/12 02:35:46;;;;;;;0.10;0.10;;;0.50;79.40;;;;;;4918235;29;20037;-74
2021/04/12 02:38:24;;;;;;;0.10;0.10;;;0.50;79.40;;;;;;4918843;29;20401;-73
2021/04/12 02:41:08;;;;;;;0.20;0.15;;;0.50;79.40;;;;;;4918463;29;20028;-72
2021/04/12 02:43:54;;;;;;;0.80;0.40;;;0.60;79.50;;;;;;4918621;29;20036;-72
2021/04/12 02:46:45;;;;;;;0.10;0.10;;;0.50;79.50;;;;;;4918520;29;20036;-72
2021/04/12 02:49:39;;;;;;;0.32;0.20;;;0.50;79.50;;;;;;4903258;29;20044;-74
2021/04/12 02:52:24;;;;;;;0.10;0.10;;;0.50;79.50;;;;;;4883122;29;20124;-74
2021/04/12 02:55:19;;;;;;;0.10;0.10;;;0.50;79.50;;;;;;4918681;29;20540;-72
2021/04/12 02:58:10;;;;;;;0.30;0.10;;;0.50;80.10;;;;;;4903463;29;20565;-74
2021/04/12 03:00:56;;;;;;;0.10;0.10;;;0.50;79.50;;;;;;4918838;29;20075;-71
2021/04/12 03:03:46;;;;;;;0.45;0.10;;;0.50;79.60;;;;;;4918602;29;20502;-72
2021/04/12 03:06:36;;;;;;;0.03;0.03;;;0.40;79.60;;;;;;4918289;29;20036;-72
2021/04/12 03:09:30;;;;;;;0.20;0.10;;;0.50;79.70;;;;;;4902660;29;20058;-73
2021/04/12 03:12:16;;;;;;;0.08;0.08;;;0.50;79.80;;;;;;4889470;29;20505;-72
2021/04/12 03:15:18;;;;;;;0.08;0.08;;;0.40;79.70;;;;;;4918102;29;20039;-74
2021/04/12 03:18:02;;;;;;;0.10;0.10;;;0.40;79.80;;;;;;4917844;29;20063;-72
2021/04/12 03:20:43;;;;;;;0.10;0.10;;;0.50;79.90;;;;;;4917658;29;20514;-72
2021/04/12 03:23:36;;;;;;;0.28;0.20;;;0.50;79.80;;;;;;4884911;29;20081;-72
2021/04/12 03:26:27;;;;;;;0.25;0.17;;;0.50;79.70;;;;;;4902433;29;20044;-72
2021/04/12 03:29:28;;;;;;;0.52;0.22;;;0.50;79.70;;;;;;4900452;29;20051;-73
2021/04/12 03:32:28;;;;;;;0.20;0.20;;;0.50;79.70;;;;;;4917670;29;20028;-72
2021/04/12 03:35:19;;;;;;;0.10;0.10;;;0.50;79.70;;;;;;4916989;29;20051;-73
2021/04/12 03:38:02;;;;;;;0.20;0.20;;;0.60;79.70;;;;;;4886038;29;20133;-73
2021/04/12 03:40:35;;;;;;;0.10;0.10;;;0.60;79.70;;;;;;4917649;29;20054;-72
2021/04/12 03:43:20;;;;;;;0.10;0.10;;;0.60;79.70;;;;;;4917947;29;20182;-72
2021/04/12 03:46:11;;;;;;;0.10;0.10;;;0.60;79.70;;;;;;4916482;29;20036;-73
2021/04/12 03:48:50;;;;;;;0.20;0.20;;;0.70;79.80;;;;;;4900439;29;20048;-72
2021/04/12 03:51:51;;;;;;;0.20;0.10;;;0.70;79.60;;;;;;4885744;29;20439;-74
2021/04/12 03:54:51;;;;;;;0.35;0.20;;;0.80;79.70;;;;;;4916947;29;20037;-73
2021/04/12 03:57:54;;;;;;;0.08;0.08;;;0.80;79.60;;;;;;4917258;29;20032;-73
2021/04/12 04:00:42;;;;;;;0.10;0.10;;;0.80;79.50;;;;;;4890279;29;20044;-73
2021/04/12 04:03:41;;;;;;;0.17;0.10;;;0.90;79.50;;;;;;4917393;29;20039;-72
2021/04/12 04:06:33;;;;;;;0.30;0.20;;;0.80;79.50;;;;;;4900168;29;20043;-72
2021/04/12 04:09:32;;;;;;;0.20;0.20;;;0.90;79.50;;;;;;4917401;29;20070;-73
2021/04/12 04:12:22;;;;;;;0.10;0.10;;;0.80;79.50;;;;;;4900085;29;20087;-72
2021/04/12 04:15:22;;;;;;;0.10;0.10;;;0.90;79.60;;;;;;4917590;29;20044;-72
2021/04/12 04:18:12;;;;;;;0.10;0.10;;;0.80;79.70;;;;;;4917240;29;20088;-72
2021/04/12 04:21:13;;;;;;;0.20;0.20;;;0.80;79.80;;;;;;4899644;29;20494;-73
2021/04/12 04:23:49;;;;;;;0.00;0.00;;;0.80;79.80;;;;;;4916898;29;20383;-72
2021/04/12 04:26:53;;;;;;;0.35;0.20;;;0.90;79.80;;;;;;4885477;29;20044;-73
2021/04/12 04:29:45;;;;;;;0.10;0.10;;;0.90;79.90;;;;;;4917290;29;20064;-73
2021/04/12 04:32:19;;;;;;;;;;;0.90;79.80;;;;;;4900461;29;20070;-73
2021/04/12 04:35:02;;;;;;;0.30;0.10;;;0.90;79.80;;;;;;4916843;29;19986;-72
2021/04/12 04:37:50;;;;;;;0.38;0.28;;;0.90;79.70;;;;;;4900878;29;20068;-72
2021/04/12 04:40:44;;;;;;;0.30;0.28;;;0.90;79.70;;;;;;4916847;29;20043;-73
2021/04/12 04:43:44;;;;;;;0.20;0.20;;;0.90;79.70;;;;;;4901996;29;20059;-72
2021/04/12 04:46:37;;;;;;;0.80;0.30;;;0.90;79.70;;;;;;4886688;29;20070;-73
2021/04/12 04:49:36;;;;;;;0.28;0.25;;;0.90;79.70;;;;;;4887475;29;20127;-73
2021/04/12 04:52:26;;;;;;;0.30;0.30;;;1.00;79.80;;;;;;4916425;29;20060;-74
2021/04/12 04:55:16;;;;;;;0.65;0.30;;;1.00;79.80;;;;;;4916499;29;20414;-73
2021/04/12 04:58:07;;;;;;;0.20;0.20;;;1.00;79.80;;;;;;4899426;29;20372;-73
2021/04/12 05:00:55;;;;;;;0.20;0.15;;;1.00;79.90;;;;;;4916332;29;20046;-73
2021/04/12 05:03:51;;;;;;;0.20;0.20;;;1.00;80.00;;;;;;4916858;29;20032;-73
2021/04/12 05:06:35;;;;;;;0.10;0.10;;;1.00;80.00;;;;;;4916619;29;20119;-73
2021/04/12 05:09:25;;;;;;;0.10;0.10;;;1.00;80.10;;;;;;4899476;29;20799;-73
2021/04/12 05:12:20;;;;;;;0.20;0.10;;;1.00;80.20;;;;;;4897747;29;20037;-72
2021/04/12 05:15:04;;;;;;;0.10;0.10;;;1.00;80.30;;;;;;4899743;29;20123;-74
2021/04/12 05:17:58;;;;;;;0.25;0.20;;;1.10;80.20;;;;;;4899425;29;20068;-75
2021/04/12 05:20:58;;;;;;;0.10;0.10;;;1.20;80.20;;;;;;4915989;29;20040;-73
2021/04/12 05:23:44;;;;;;;0.20;0.20;;;1.30;80.10;;;;;;4916207;29;20036;-72
2021/04/12 05:26:49;;;;;;;0.10;0.10;;;1.20;80.00;;;;;;4897732;29;20123;-72
2021/04/12 05:29:41;;;;;;;0.20;0.20;;;1.30;80.00;;;;;;4901583;29;20076;-73
2021/04/12 05:32:29;;;;;;;0.20;0.20;;;1.30;79.80;;;;;;4915678;29;20039;-72
2021/04/12 05:35:28;;;;;;;0.20;0.20;;;1.40;79.80;;;;;;4913289;29;20036;-72
2021/04/12 05:38:29;;;;;;;0.43;0.13;;;1.40;79.80;;;;;;4887607;29;20044;-72
2021/04/12 05:41:10;;;;;;;0.73;0.10;;;1.40;79.80;;;;;;4915901;29;20063;-72
2021/04/12 05:44:00;;;;;;;0.10;0.10;;;1.40;79.80;;;;;;4915797;29;20792;-73
2021/04/12 05:46:39;;;;;;;0.15;0.10;;;1.50;79.90;;;;;;4915636;29;20091;-72
2021/04/12 05:49:31;;;;;;;0.13;0.13;;;1.50;79.90;;;;;;4915737;29;20525;-72
2021/04/12 05:52:23;;;;;;;0.20;0.20;;;1.60;80.10;;;;;;4915593;29;20111;-72
2021/04/12 05:55:10;;;;;;;0.10;0.10;;;1.60;80.00;;;;;;4898672;29;20071;-72
2021/04/12 05:58:02;;;;;;;0.10;0.10;;;1.60;80.00;;;;;;4915761;29;20054;-72
2021/04/12 06:00:47;;;;;;;;;;;1.60;79.90;;;;;;4898891;29;20045;-72
2021/04/12 06:03:40;;;;;;;0.55;0.25;;;1.60;79.90;;;;;;4901842;29;19915;-72
2021/04/12 06:06:40;;;;;;;0.22;0.22;;;1.70;79.80;;;;;;4898557;29;20048;-73
2021/04/12 06:09:29;;;;;;;0.40;0.20;;;1.70;79.80;;;;;;4918302;29;20051;-73
2021/04/12 06:12:32;;;;;;;0.55;0.28;;;1.80;79.80;;;;;;4918754;29;20099;-72
2021/04/12 06:15:22;;;;;;;0.85;0.35;;;1.90;79.80;;;;;;4918495;29;20037;-73
2021/04/12 06:18:14;;;;;;;0.50;0.22;;;1.90;79.60;;;;;;4918214;29;20036;-72
2021/04/12 06:21:00;;;;;;;;;;;2.00;79.60;;;;;;4918748;29;20072;-72
2021/04/12 06:23:37;;;;;;;0.32;0.20;;;2.10;79.50;;;;;;4904317;29;20290;-72
2021/04/12 06:26:43;;;;;;;0.52;0.20;;;2.20;79.30;;;;;;4918637;29;20042;-73
2021/04/12 06:29:43;;;;;;;0.30;0.22;;;2.20;79.20;;;;;;4901084;29;20115;-72
2021/04/12 06:32:34;;;;;;;0.30;0.30;;;2.40;79.20;;;;;;4905566;29;20074;-72
2021/04/12 06:35:13;;;;;;;0.10;0.10;;;2.50;79.10;;;;;;4918377;29;20626;-73
2021/04/12 06:38:14;;;;;;;0.30;0.20;;;2.50;79.00;;;;;;4918254;29;20035;-73
2021/04/12 06:41:14;;;;;;;0.45;0.38;;;2.50;79.10;;;;;;4902002;29;20049;-73
2021/04/12 06:44:14;;;;;;;0.20;0.20;;;2.50;79.90;;;;;;4918390;29;20048;-73
2021/04/12 06:47:04;;;;;;;2.30;0.30;;;2.50;79.30;;;;;;4904599;29;20047;-72
2021/04/12 06:50:05;;;;;;;0.43;0.32;;;2.60;79.00;;;;;;4901698;29;20041;-74
2021/04/12 06:53:05;;;;;;;0.30;0.30;;;2.60;79.10;;;;;;4917607;29;20435;-72
2021/04/12 06:56:02;;;;;;;0.20;0.17;;;2.60;79.30;;;;;;4903451;29;20488;-73
2021/04/12 06:59:05;;;;;;;0.20;0.20;;;2.60;79.60;;;;;;4892002;29;20044;-74
2021/04/12 07:02:05;;;;;;;0.30;0.25;;;2.60;79.60;;;;;;4901039;29;20038;-74
2021/04/12 07:05:11;;;;;;;0.60;0.30;;;2.70;79.60;;;;;;4904339;29;20044;-73
2021/04/12 07:08:15;;;;;;;0.30;0.30;;;2.90;79.50;;;;;;4912315;29;20028;-75
2021/04/12 07:11:04;;;;;;;0.25;0.25;;;3.00;79.40;;;;;;4908214;29;20088;-73
2021/04/12 07:14:05;;;;;;;0.20;0.20;;;3.10;79.20;;;;;;4885375;29;20029;-73
2021/04/12 07:16:53;;;;;;;0.13;0.13;;;3.30;79.20;;;;;;4900266;29;20040;-73
2021/04/12 07:19:56;;;;;;;0.55;0.35;;;3.50;79.10;;;;;;4887396;29;20494;-74
2021/04/12 07:23:02;;;;;;;0.35;0.30;;;3.50;78.90;;;;;;4918042;29;20040;-72
2021/04/12 07:26:05;;;;;;;0.28;0.20;;;3.70;78.90;;;;;;4894793;29;20064;-73
2021/04/12 07:29:08;;;;;;;0.30;0.30;;;3.80;78.70;;;;;;4891867;29;20048;-72
2021/04/12 07:32:08;;;;;;;0.28;0.28;;;3.90;78.50;;;;;;4919429;29;20513;-73
2021/04/12 07:34:59;;;;;;;0.20;0.20;;;4.20;78.50;;;;;;4903427;29;20028;-73
2021/04/12 07:37:57;;;;;;;0.40;0.30;;;4.20;78.20;;;;;;4888630;29;20036;-73
2021/04/12 07:40:57;;;;;;;0.40;0.30;;;4.40;78.20;;;;;;4903237;29;20048;-73
2021/04/12 07:43:54;;;;;;;0.35;0.35;;;4.60;78.00;;;;;;4909803;29;20127;-74
2021/04/12 07:47:00;;;;;;;1.75;0.50;;;4.70;77.70;;;;;;4911386;29;20099;-75
2021/04/12 07:49:59;;;;;;;0.30;0.30;;;4.80;77.60;;;;;;4892083;29;20096;-74
2021/04/12 07:52:52;;;;;;;0.60;0.45;;;5.00;77.50;;;;;;4914102;29;20036;-74
2021/04/12 07:55:46;;;;;;;0.30;0.30;;;5.30;77.50;;;;;;4910137;29;20044;-74
2021/04/12 07:58:52;;;;;;;0.30;0.30;;;5.50;77.10;;;;;;4906486;29;20092;-75
2021/04/12 08:01:53;;;;;;;0.95;0.50;;;5.50;76.80;;;;;;4919534;29;20032;-77
2021/04/12 08:04:53;;;;;;;0.93;0.70;;;5.60;76.80;;;;;;4903927;29;20048;-75
2021/04/12 08:07:53;;;;;;;0.85;0.50;;;5.40;76.70;;;;;;4906943;29;20123;-74
2021/04/12 08:10:53;;;;;;;1.52;0.65;;;5.20;77.20;;;;;;4926709;29;20076;-77
2021/04/12 08:13:54;;;;;;;1.52;0.68;;;4.90;77.70;;;;;;4908920;29;20040;-74
2021/04/12 08:16:44;;;;;;;1.25;0.63;;;4.90;78.50;;;;;;4909725;29;20123;-75
2021/04/12 08:19:34;;;;;;;2.33;0.80;;;5.10;78.50;;;;;;4909601;29;20043;-74
